Time;durP1;ratioP1;P1;durP2;ratioP2;P2;SDS_P1;SDS_P2;PMS_P1;PMS_P2;Temp;Humidity;BMP_temperature;BMP_pressure;BME280_temperature;BME280_humidity;BME280_pressure;Samples;Min_cycle;Max_cycle;Signal;HPM_P1;HPM_P2
2022/10/24 00:01:28;;;;;;;54.78;38.33;;;;;;;29.05;78.28;100979.91;5085064;27;69223;-33
2022/10/24 00:03:58;;;;;;;54.30;36.40;;;;;;;29.06;80.24;100989.66;5087516;27;65657;-33
2022/10/24 00:06:29;;;;;;;55.50;35.25;;;;;;;29.13;79.44;100998.59;5085747;27;70253;-34
2022/10/24 00:08:59;;;;;;;46.08;32.80;;;;;;;29.11;78.57;100984.47;5083284;27;66303;-32
2022/10/24 00:11:30;;;;;;;48.67;33.50;;;;;;;29.27;78.39;101004.84;5086143;27;69519;-32
2022/10/24 00:14:02;;;;;;;44.05;32.45;;;;;;;29.14;77.57;100978.66;5086788;27;66156;-33
2022/10/24 00:16:34;;;;;;;46.35;32.50;;;;;;;29.27;78.83;100991.34;5094708;27;69681;-33
2022/10/24 00:19:05;;;;;;;47.70;31.33;;;;;;;29.29;78.33;100997.38;5089033;27;66807;-32
2022/10/24 00:21:35;;;;;;;45.22;31.63;;;;;;;29.29;78.75;100992.81;5112672;27;70075;-33
2022/10/24 00:24:07;;;;;;;40.35;30.60;;;;;;;29.42;78.78;101008.22;5102250;27;65498;-32
2022/10/24 00:26:38;;;;;;;46.07;32.13;;;;;;;29.43;78.17;101000.94;5102709;27;70576;-32
2022/10/24 00:29:08;;;;;;;47.13;32.38;;;;;;;29.42;78.90;100992.00;5085332;27;66399;-31
2022/10/24 00:31:39;;;;;;;48.20;31.35;;;;;;;29.42;77.96;100991.13;5087493;27;70052;-31
2022/10/24 00:34:09;;;;;;;41.15;30.27;;;;;;;29.40;78.36;100984.09;5093471;27;65654;-33
2022/10/24 00:36:40;;;;;;;42.60;31.33;;;;;;;29.55;78.76;101001.94;5102003;27;68992;-33
2022/10/24 00:39:11;;;;;;;39.90;31.60;;;;;;;29.68;74.93;101007.38;5095792;27;66328;-33
2022/10/24 00:41:43;;;;;;;43.75;31.10;;;;;;;29.70;73.42;101008.03;5101038;27;69388;-31
2022/10/24 00:44:24;;;;;;;37.88;28.10;;;;;;;29.74;73.11;101006.56;5098956;27;66275;-32
2022/10/24 00:47:03;;;;;;;35.30;26.60;;;;;;;29.80;72.60;101016.53;5095599;27;70417;-33
2022/10/24 00:49:47;;;;;;;32.65;27.23;;;;;;;29.81;72.08;101006.53;5104586;27;66677;-32
2022/10/24 00:52:25;;;;;;;31.58;25.75;;;;;;;29.44;71.82;100945.81;5098292;27;70518;-32
2022/10/24 00:54:58;;;;;;;31.63;25.98;;;;;;;29.92;72.17;101015.88;5103559;27;65467;-31
2022/10/24 00:58:00;;;;;;;34.90;26.55;;;;;;;29.76;72.33;101023.41;5101046;27;69629;-32
2022/10/24 01:00:33;;;;;;;37.50;26.42;;;;;;;29.43;71.51;100923.38;5076674;27;66015;-31
2022/10/24 01:03:03;;;;;;;34.08;26.98;;;;;;;29.98;71.75;101006.94;5112940;27;70311;-31
2022/10/24 01:06:04;;;;;;;37.03;26.83;;;;;;;29.97;71.66;101010.66;5110336;27;66391;-32
2022/10/24 01:08:41;;;;;;;33.63;26.33;;;;;;;30.00;71.08;101007.53;5066632;27;70240;-33
2022/10/24 01:12:05;;;;;;;38.92;27.48;;;;;;;29.81;71.90;101007.38;5097603;27;65775;-32
2022/10/24 01:14:52;;;;;;;37.10;27.27;;;;;;;30.05;71.09;101013.16;5074217;27;70086;-32
2022/10/24 01:17:38;;;;;;;31.70;25.90;;;;;;;30.08;71.05;101012.72;5068519;28;66295;-33
2022/10/24 01:20:27;;;;;;;36.03;26.33;;;;;;;30.11;71.25;101006.06;5105063;27;70642;-32
2022/10/24 01:23:20;;;;;;;29.45;25.67;;;;;;;30.14;71.11;101001.06;5102924;27;65266;-32
2022/10/24 01:26:10;;;;;;;31.25;26.08;;;;;;;30.12;70.66;101003.16;5111295;27;44179;-32
2022/10/24 01:29:04;;;;;;;27.95;24.70;;;;;;;30.11;70.24;101011.47;5103099;27;65662;-32
2022/10/24 01:31:50;;;;;;;27.92;24.33;;;;;;;30.10;70.83;101010.66;5102316;27;69867;-33
2022/10/24 01:34:29;;;;;;;34.05;25.40;;;;;;;29.63;70.36;100923.38;5087675;27;65934;-33
2022/10/24 01:37:07;;;;;;;28.42;25.35;;;;;;;30.08;70.35;100991.09;5087550;27;69987;-32
2022/10/24 01:39:45;;;;;;;32.03;26.10;;;;;;;30.14;69.81;100998.34;5091955;27;66404;-32
2022/10/24 01:42:23;;;;;;;28.87;25.10;;;;;;;30.29;70.09;101025.19;5082486;27;69391;-33
2022/10/24 01:44:56;;;;;;;33.58;25.02;;;;;;;30.34;70.29;101021.84;5087802;27;66444;-33
2022/10/24 01:47:33;;;;;;;30.90;23.73;;;;;;;29.67;69.84;100910.25;5094513;27;70456;-32
2022/10/24 01:50:10;;;;;;;33.60;24.10;;;;;;;29.76;69.79;100926.06;5086845;27;66653;-33
2022/10/24 01:52:44;;;;;;;27.38;23.77;;;;;;;30.37;70.09;101026.81;5094273;27;69657;-32
2022/10/24 01:55:15;;;;;;;28.70;22.60;;;;;;;30.33;69.98;101004.78;5095694;27;66389;-33
2022/10/24 01:57:45;;;;;;;27.52;22.25;;;;;;;30.37;69.62;101010.59;5087653;27;70706;-32
2022/10/24 02:00:19;;;;;;;33.05;22.90;;;;;;;30.21;69.39;100974.81;5098228;27;65848;-34
2022/10/24 02:03:33;;;;;;;26.85;21.85;;;;;;;30.26;69.77;101010.22;5099511;27;69816;-34
2022/10/24 02:06:10;;;;;;;23.38;20.98;;;;;;;29.50;69.83;100861.19;5088325;27;66349;-33
2022/10/24 02:08:51;;;;;;;24.08;21.33;;;;;;;30.36;69.39;101014.34;5097915;27;70009;-33
2022/10/24 02:11:22;;;;;;;24.92;20.55;;;;;;;30.50;69.62;101010.53;5099117;27;66536;-33
2022/10/24 02:14:15;;;;;;;23.05;20.60;;;;;;;30.01;69.33;100941.59;5092121;27;69802;-33
2022/10/24 02:16:47;;;;;;;26.48;20.42;;;;;;;30.55;69.35;101018.84;5092680;27;66690;-33
2022/10/24 02:19:18;;;;;;;26.73;21.50;;;;;;;30.59;68.68;101025.50;5089893;27;69373;-32
2022/10/24 02:22:09;;;;;;;24.70;20.13;;;;;;;30.60;68.82;101018.22;5095259;27;66523;-32
2022/10/24 02:25:03;;;;;;;22.80;20.33;;;;;;;30.08;68.69;100942.38;5090310;27;69636;-33
2022/10/24 02:27:39;;;;;;;22.92;19.55;;;;;;;30.19;68.58;100959.84;5116395;27;66163;-33
2022/10/24 02:30:17;;;;;;;21.25;19.00;;;;;;;29.71;68.81;100873.66;5094103;27;69214;-33
2022/10/24 02:33:00;;;;;;;24.83;18.92;;;;;;;30.63;68.46;101037.56;5097270;27;65834;-35
2022/10/24 02:36:16;;;;;;;20.63;18.42;;;;;;;30.58;68.61;101033.84;5098308;27;70718;-34
2022/10/24 02:39:13;;;;;;;23.55;18.58;;;;;;;30.62;68.90;101033.19;5102034;27;66362;-33
2022/10/24 02:41:58;;;;;;;19.77;17.67;;;;;;;30.78;68.37;101041.88;5097778;27;70265;-32
2022/10/24 02:44:29;;;;;;;19.50;17.65;;;;;;;30.79;68.10;101030.00;5094027;27;65662;-33
2022/10/24 02:47:03;;;;;;;20.20;18.10;;;;;;;30.82;68.12;101045.84;5105752;27;69855;-33
2022/10/24 02:49:34;;;;;;;19.70;17.60;;;;;;;30.84;68.01;101044.59;5100354;27;66161;-33
2022/10/24 02:52:06;;;;;;;21.52;16.83;;;;;;;30.78;68.18;101029.16;5105309;27;70162;-33
2022/10/24 02:54:37;;;;;;;21.40;18.30;;;;;;;30.89;68.20;101046.63;5098420;27;65416;-32
2022/10/24 02:57:20;;;;;;;18.73;16.50;;;;;;;30.90;67.64;101048.31;5108555;27;70246;-33
2022/10/24 02:59:51;;;;;;;23.15;17.00;;;;;;;30.95;67.50;101045.75;5097209;27;66559;-32
2022/10/24 03:02:22;;;;;;;26.88;16.63;;;;;;;30.98;67.40;101045.34;5102049;27;69458;-32
2022/10/24 03:04:54;;;;;;;22.88;15.93;;;;;;;31.00;67.90;101037.00;5090896;27;66495;-32
2022/10/24 03:07:25;;;;;;;22.95;15.73;;;;;;;31.00;67.71;101031.56;5102035;27;70511;-32
2022/10/24 03:09:56;;;;;;;21.95;16.27;;;;;;;31.04;67.16;101033.63;5092642;27;66455;-32
2022/10/24 03:12:26;;;;;;;16.65;14.82;;;;;;;31.07;67.09;101027.78;5103069;27;70387;-32
2022/10/24 03:14:56;;;;;;;23.48;15.75;;;;;;;31.09;67.43;101025.69;5113319;27;66658;-33
2022/10/24 03:17:27;;;;;;;17.90;15.85;;;;;;;31.12;67.03;101024.41;5102707;27;70128;-33
2022/10/24 03:19:58;;;;;;;21.42;15.25;;;;;;;30.99;67.10;100998.25;5102514;27;66721;-34
2022/10/24 03:22:28;;;;;;;20.38;15.65;;;;;;;31.15;66.82;101019.38;5102978;27;69272;-33
2022/10/24 03:25:01;;;;;;;16.25;14.75;;;;;;;31.20;67.01;101020.59;5099792;27;66498;-32
2022/10/24 03:27:33;;;;;;;16.60;14.73;;;;;;;31.21;66.91;101016.84;5100171;27;70146;-32
2022/10/24 03:30:04;;;;;;;16.88;15.00;;;;;;;31.21;66.57;101016.84;5102944;27;65899;-33
2022/10/24 03:32:35;;;;;;;;;;;;;;;30.87;68.19;101018.91;5089736;27;69294;-32
2022/10/24 03:35:32;;;;;;;21.27;15.35;;;;;;;31.22;66.95;101023.94;5083304;27;66209;-32
2022/10/24 03:38:06;;;;;;;18.52;14.50;;;;;;;31.24;66.95;101016.41;5090067;27;70315;-31
2022/10/24 03:40:37;;;;;;;17.42;13.93;;;;;;;31.27;66.30;101007.84;5092100;27;66074;-32
2022/10/24 03:43:08;;;;;;;18.25;14.30;;;;;;;31.28;66.35;101006.78;5095081;27;70195;-32
2022/10/24 03:45:38;;;;;;;15.57;14.02;;;;;;;31.15;66.56;100978.75;5094834;27;65225;-33
2022/10/24 03:48:09;;;;;;;17.02;14.27;;;;;;;31.32;66.02;100997.19;5090915;27;70035;-33
2022/10/24 03:50:40;;;;;;;17.30;14.15;;;;;;;31.04;66.13;100946.13;5096354;27;65275;-33
2022/10/24 03:53:10;;;;;;;22.40;14.68;;;;;;;31.34;65.98;100982.34;5095735;27;69290;-33
2022/10/24 03:55:41;;;;;;;15.60;13.98;;;;;;;31.37;65.85;100979.22;5096271;27;65535;-33
2022/10/24 04:02:00;;;;;;;14.77;13.40;;;;;;;31.40;66.16;100983.38;5062888;27;65361;-33
2022/10/24 04:04:32;;;;;;;15.30;13.20;;;;;;;31.44;65.86;100972.91;5086571;27;70167;-33
2022/10/24 04:07:05;;;;;;;14.75;13.35;;;;;;;31.43;66.06;100976.69;5081499;27;66555;-32
2022/10/24 04:10:09;;;;;;;15.10;13.38;;;;;;;31.31;65.86;100962.97;5083345;27;69198;-32
2022/10/24 04:12:46;;;;;;;17.27;12.45;;;;;;;31.45;65.91;100961.84;4991754;28;66312;-34
2022/10/24 04:15:29;;;;;;;14.95;13.27;;;;;;;31.48;65.72;100947.00;4995888;28;70129;-33
2022/10/24 04:18:29;;;;;;;13.43;12.23;;;;;;;31.49;65.58;100960.34;4996290;28;65423;-31
2022/10/24 04:21:47;;;;;;;15.65;12.65;;;;;;;31.45;65.66;100937.44;4994395;28;70384;-33
2022/10/24 04:24:38;;;;;;;13.88;12.52;;;;;;;31.51;65.90;100931.16;4902500;28;66279;-33
2022/10/24 04:27:09;;;;;;;15.27;12.88;;;;;;;31.54;65.37;100936.13;4915620;28;69959;-32
2022/10/24 04:30:03;;;;;;;13.07;12.07;;;;;;;31.53;65.85;100929.00;4980625;28;65720;-33
2022/10/24 04:32:42;;;;;;;15.75;12.68;;;;;;;31.57;65.65;100924.81;4938431;28;70199;-32
2022/10/24 04:35:59;;;;;;;14.38;12.45;;;;;;;31.45;65.43;100910.31;4938684;28;65926;-32
2022/10/24 04:38:59;;;;;;;13.40;11.98;;;;;;;31.60;65.43;100902.69;4915215;28;69322;-33
2022/10/24 04:44:27;;;;;;;12.95;11.82;;;;;;;31.67;65.57;100896.34;4870939;29;69454;-36
2022/10/24 04:47:02;;;;;;;12.10;10.93;;;;;;;31.21;64.93;100805.50;4873075;29;65082;-33
2022/10/24 04:49:36;;;;;;;12.75;11.65;;;;;;;31.62;65.32;100861.75;4939185;28;69575;-32
2022/10/24 04:52:06;;;;;;;12.57;11.32;;;;;;;31.71;64.94;100873.16;5030067;27;66468;-33
2022/10/24 04:54:36;;;;;;;18.58;10.77;;;;;;;31.76;65.16;100870.56;5116342;27;69172;-33
2022/10/24 04:57:07;;;;;;;11.43;10.50;;;;;;;31.79;65.13;100859.31;5095921;27;65934;-33
2022/10/24 04:59:38;;;;;;;12.65;11.13;;;;;;;31.79;65.12;100851.16;5112587;27;69897;-33
2022/10/24 05:02:09;;;;;;;12.18;11.07;;;;;;;31.80;64.93;100841.97;5105932;27;66115;-34
2022/10/24 05:04:40;;;;;;;15.20;10.95;;;;;;;31.84;64.90;100837.72;5107430;27;69940;-38
2022/10/24 05:07:11;;;;;;;14.00;11.73;;;;;;;31.87;65.01;100839.16;5115259;27;65704;-32
2022/10/24 05:09:43;;;;;;;10.80;9.98;;;;;;;31.89;64.74;100824.31;5115794;27;69842;-33
2022/10/24 05:12:14;;;;;;;12.10;10.90;;;;;;;31.86;64.66;100802.25;5100374;27;67119;-32
2022/10/24 05:14:46;;;;;;;11.32;10.52;;;;;;;31.90;64.87;100812.41;5101307;27;70198;-32
2022/10/24 05:17:16;;;;;;;11.98;10.65;;;;;;;31.92;64.44;100804.88;5100532;27;66018;-33
2022/10/24 05:19:47;;;;;;;10.95;9.93;;;;;;;31.96;64.46;100802.56;5101465;27;70126;-32
2022/10/24 05:22:18;;;;;;;11.60;10.50;;;;;;;31.82;64.48;100778.28;5108504;27;65742;-34
2022/10/24 05:24:49;;;;;;;10.30;9.52;;;;;;;31.99;64.32;100792.06;5104285;27;69226;-33
2022/10/24 05:27:23;;;;;;;11.23;10.10;;;;;;;31.84;64.18;100761.78;5099900;27;65187;-33
2022/10/24 05:29:54;;;;;;;11.50;9.57;;;;;;;31.92;63.88;100753.34;5102733;27;69989;-32
2022/10/24 05:32:25;;;;;;;10.75;9.98;;;;;;;32.03;64.12;100766.13;5099585;27;66210;-33
2022/10/24 05:34:56;;;;;;;11.00;10.20;;;;;;;32.08;63.81;100768.16;5108942;27;70317;-33
2022/10/24 05:37:26;;;;;;;10.00;9.32;;;;;;;32.12;63.70;100754.94;5109064;27;65858;-34
2022/10/24 05:40:02;;;;;;;10.32;9.63;;;;;;;32.14;63.96;100758.25;5092879;27;70850;-36
2022/10/24 05:42:32;;;;;;;10.77;9.77;;;;;;;32.16;64.03;100740.69;5106364;27;65697;-33
2022/10/24 05:45:04;;;;;;;10.48;9.68;;;;;;;32.19;63.63;100742.09;5112898;27;70943;-34
2022/10/24 05:47:35;;;;;;;10.27;9.60;;;;;;;32.19;63.59;100742.09;5101393;27;65162;-34
2022/10/24 05:50:06;;;;;;;10.23;9.20;;;;;;;32.24;63.30;100732.22;5111726;27;69355;-33
2022/10/24 05:52:43;;;;;;;9.85;9.05;;;;;;;32.25;63.41;100714.03;5112651;27;65534;-33
2022/10/24 05:55:15;;;;;;;9.82;9.02;;;;;;;32.26;63.20;100715.69;5111359;27;69463;-33
2022/10/24 05:57:47;;;;;;;9.57;8.85;;;;;;;32.15;63.13;100689.34;5100390;27;65387;-33
2022/10/24 06:00:17;;;;;;;9.57;8.82;;;;;;;32.30;63.06;100695.16;5112540;27;70034;-32
2022/10/24 06:02:49;;;;;;;8.57;8.07;;;;;;;32.31;63.42;100687.84;5102419;27;66215;-33
2022/10/24 06:05:19;;;;;;;9.73;9.10;;;;;;;32.34;63.12;100673.78;5100470;27;70065;-34
2022/10/24 06:07:50;;;;;;;8.93;8.27;;;;;;;32.21;63.15;100647.72;5093221;27;66066;-32
2022/10/24 06:10:21;;;;;;;8.68;8.07;;;;;;;32.36;63.03;100667.06;5104084;27;69546;-34
2022/10/24 06:12:52;;;;;;;9.20;8.43;;;;;;;32.27;62.78;100641.34;5088326;27;66667;-33
2022/10/24 06:15:22;;;;;;;8.95;8.45;;;;;;;32.39;63.01;100638.63;5103074;27;71008;-33
2022/10/24 06:17:53;;;;;;;8.60;8.00;;;;;;;32.41;62.90;100648.19;5098226;27;66074;-33
2022/10/24 06:20:23;;;;;;;8.43;7.78;;;;;;;32.45;62.70;100630.34;5098554;27;70073;-35
2022/10/24 06:22:53;;;;;;;9.48;8.38;;;;;;;32.45;62.56;100622.22;5096565;27;66271;-33
2022/10/24 06:25:24;;;;;;;8.02;7.53;;;;;;;32.49;62.80;100620.72;5086544;27;70405;-31
2022/10/24 06:27:55;;;;;;;8.88;8.27;;;;;;;32.49;62.56;100618.00;5090152;27;65390;-33
2022/10/24 06:30:26;;;;;;;8.77;7.90;;;;;;;32.52;62.84;100614.00;5091092;27;70580;-33
2022/10/24 06:32:56;;;;;;;7.88;7.43;;;;;;;32.56;62.58;100609.72;5097818;27;66392;-33
2022/10/24 06:35:27;;;;;;;8.50;8.00;;;;;;;32.58;62.53;100610.31;5091561;27;70805;-34
2022/10/24 06:37:58;;;;;;;8.50;7.85;;;;;;;32.52;62.64;100580.59;5106570;27;66141;-34
2022/10/24 06:40:32;;;;;;;7.93;7.43;;;;;;;32.63;62.51;100591.41;5102432;27;70804;-33
2022/10/24 06:43:02;;;;;;;9.10;8.32;;;;;;;32.63;62.20;100585.16;5101737;27;66961;-34
2022/10/24 06:45:32;;;;;;;8.00;7.22;;;;;;;32.66;62.41;100584.69;5099881;27;69509;-34
2022/10/24 06:48:03;;;;;;;7.82;7.32;;;;;;;32.71;62.03;100579.38;5103799;27;66235;-33
2022/10/24 06:50:39;;;;;;;7.63;7.05;;;;;;;32.72;62.23;100578.28;5101229;27;69733;-33
2022/10/24 06:53:10;;;;;;;8.18;7.55;;;;;;;32.73;62.10;100571.78;5093218;27;66230;-34
2022/10/24 06:55:41;;;;;;;7.45;6.97;;;;;;;32.74;62.11;100570.72;5097728;27;69082;-33
2022/10/24 06:58:11;;;;;;;8.70;7.20;;;;;;;32.69;62.07;100551.63;5103794;27;65287;-32
2022/10/24 07:00:42;;;;;;;8.17;7.57;;;;;;;32.80;62.03;100564.34;5115926;27;69528;-33
2022/10/24 07:03:16;;;;;;;8.60;7.90;;;;;;;32.82;61.44;100556.78;5114583;27;66416;-32
2022/10/24 07:05:46;;;;;;;7.90;7.30;;;;;;;32.87;61.69;100554.13;5118540;27;69957;-33
2022/10/24 07:08:17;;;;;;;7.72;7.15;;;;;;;32.91;61.60;100559.94;5113754;27;65455;-33
2022/10/24 07:10:47;;;;;;;8.10;7.07;;;;;;;32.94;61.76;100552.13;5113541;27;70126;-33
2022/10/24 07:13:17;;;;;;;7.68;6.72;;;;;;;32.98;61.64;100548.91;5114183;27;65986;-32
2022/10/24 07:15:53;;;;;;;7.10;6.63;;;;;;;32.97;61.54;100534.50;5113709;27;69750;-33
2022/10/24 07:18:23;;;;;;;7.47;6.93;;;;;;;33.04;61.36;100539.81;5102834;27;66850;-33
2022/10/24 07:20:54;;;;;;;6.85;6.45;;;;;;;33.05;61.31;100528.72;5107423;27;70535;-33
2022/10/24 07:23:24;;;;;;;7.13;6.55;;;;;;;32.92;61.02;100516.19;5113203;27;66602;-33
2022/10/24 07:25:54;;;;;;;9.70;6.90;;;;;;;33.10;61.23;100530.72;5114663;27;69590;-33
2022/10/24 07:28:25;;;;;;;6.25;5.75;;;;;;;33.11;61.38;100533.16;5114685;27;66490;-33
2022/10/24 07:31:00;;;;;;;6.30;5.88;;;;;;;33.03;61.08;100527.31;5101133;27;70288;-32
2022/10/24 07:33:31;;;;;;;6.55;6.15;;;;;;;33.02;61.28;100514.78;5094850;27;66068;-32
2022/10/24 07:36:03;;;;;;;6.97;6.55;;;;;;;33.15;61.32;100538.94;5096139;27;70558;-35
2022/10/24 07:38:33;;;;;;;6.45;6.05;;;;;;;31.98;61.13;100348.22;5100531;27;66687;-32
2022/10/24 07:41:07;;;;;;;7.13;6.43;;;;;;;33.17;60.91;100531.34;5099729;27;69978;-33
2022/10/24 07:43:38;;;;;;;6.70;6.20;;;;;;;33.22;61.02;100536.91;5104637;27;66266;-34
2022/10/24 07:46:11;;;;;;;7.28;6.72;;;;;;;33.24;61.12;100536.63;5104452;27;70026;-34
2022/10/24 07:48:42;;;;;;;7.43;6.20;;;;;;;33.23;60.88;100535.81;5087320;27;65659;-33
2022/10/24 07:51:13;;;;;;;6.45;5.95;;;;;;;33.21;60.86;100521.66;5103224;27;69358;-32
2022/10/24 07:53:43;;;;;;;;;;;;;;;32.97;61.26;100537.22;5095560;27;67277;-33
2022/10/24 07:56:15;;;;;;;6.68;6.05;;;;;;;33.25;60.95;100533.69;5089512;27;70021;-32
2022/10/24 07:58:47;;;;;;;6.50;6.00;;;;;;;33.27;60.77;100519.88;5083763;27;65747;-36
2022/10/24 08:01:20;;;;;;;6.38;5.97;;;;;;;32.82;60.55;100448.13;5082060;27;69587;-34
2022/10/24 08:03:51;;;;;;;8.00;6.35;;;;;;;33.32;60.44;100528.94;5086894;27;66564;-33
2022/10/24 08:06:29;;;;;;;6.70;6.30;;;;;;;32.89;60.48;100451.50;5080446;27;70396;-33
2022/10/24 08:08:59;;;;;;;6.72;6.22;;;;;;;33.32;60.53;100515.34;5090224;27;65105;-33
2022/10/24 08:11:31;;;;;;;6.50;6.10;;;;;;;33.22;60.59;100496.13;5098868;27;70409;-32
2022/10/24 08:14:02;;;;;;;6.65;5.97;;;;;;;33.35;60.53;100530.34;5093121;27;65616;-33
2022/10/24 08:16:33;;;;;;;5.82;5.47;;;;;;;33.29;60.71;100517.69;5093103;27;69870;-31
2022/10/24 08:19:04;;;;;;;6.95;6.28;;;;;;;33.37;60.49;100522.72;5096136;27;66180;-32
2022/10/24 08:21:35;;;;;;;6.30;5.90;;;;;;;33.37;60.52;100531.72;5100044;27;69417;-32
2022/10/24 08:24:05;;;;;;;5.77;5.37;;;;;;;33.40;60.50;100526.84;5100930;27;66374;-34
2022/10/24 08:26:39;;;;;;;;;;;;;;;33.15;60.84;100522.63;5097447;27;70555;-31
2022/10/24 08:29:13;;;;;;;6.60;6.10;;;;;;;33.36;60.56;100519.19;5090285;27;66623;-34
2022/10/24 08:31:44;;;;;;;6.40;6.00;;;;;;;33.33;60.66;100508.81;5105509;27;68864;-33
2022/10/24 08:34:15;;;;;;;6.03;5.63;;;;;;;33.37;60.40;100509.97;5079982;27;66018;-33
2022/10/24 08:36:49;;;;;;;5.80;5.40;;;;;;;33.40;60.39;100524.13;5095485;27;69251;-34
2022/10/24 08:39:20;;;;;;;6.15;5.65;;;;;;;33.44;60.32;100525.31;5096830;27;65313;-33
2022/10/24 08:41:54;;;;;;;7.82;6.45;;;;;;;32.92;60.49;100445.56;5098641;27;69761;-33
2022/10/24 08:44:36;;;;;;;5.78;5.38;;;;;;;33.31;59.91;100510.94;5107044;27;66281;-34
2022/10/24 08:47:39;;;;;;;6.18;5.78;;;;;;;33.34;60.54;100543.06;5095741;27;70213;-32
2022/10/24 08:50:32;;;;;;;6.35;5.90;;;;;;;33.32;60.49;100552.53;5082227;27;66739;-32
2022/10/24 08:53:20;;;;;;;5.68;5.38;;;;;;;33.42;60.52;100551.91;5092558;27;70056;-34
2022/10/24 08:55:53;;;;;;;6.10;5.80;;;;;;;33.43;60.71;100551.66;5083973;27;66261;-33
2022/10/24 08:58:35;;;;;;;5.93;5.50;;;;;;;32.91;60.69;100473.00;5081903;27;70461;-34
2022/10/24 09:01:12;;;;;;;6.43;5.97;;;;;;;33.38;60.51;100549.69;5080454;27;66402;-32
2022/10/24 09:03:47;;;;;;;5.45;5.10;;;;;;;33.36;60.62;100546.38;5092926;27;69528;-32
2022/10/24 09:06:28;;;;;;;5.43;5.13;;;;;;;32.92;60.61;100478.16;5097886;27;66426;-32
2022/10/24 09:09:02;;;;;;;8.18;5.68;;;;;;;33.42;60.29;100560.06;5113073;27;70322;-32
2022/10/24 09:11:50;;;;;;;5.82;5.47;;;;;;;33.31;60.53;100559.06;5095029;27;65601;-32
2022/10/24 09:14:31;;;;;;;5.22;4.93;;;;;;;33.38;60.63;100576.06;5095921;27;69623;-33
2022/10/24 09:17:23;;;;;;;6.05;5.60;;;;;;;33.21;60.41;100546.13;5094197;27;65902;-33
2022/10/24 09:20:27;;;;;;;6.20;5.70;;;;;;;33.28;60.51;100560.38;5092909;27;70544;-33
2022/10/24 09:23:02;;;;;;;6.72;6.10;;;;;;;32.98;60.30;100500.81;5102821;27;65218;-33
2022/10/24 09:25:35;;;;;;;6.07;5.78;;;;;;;33.37;60.33;100564.34;5096599;27;69408;-33
2022/10/24 09:28:07;;;;;;;7.03;6.38;;;;;;;33.38;60.42;100571.44;5106503;27;66553;-34
2022/10/24 09:30:38;;;;;;;7.75;6.00;;;;;;;33.36;60.56;100568.13;5098801;27;70253;-32
2022/10/24 09:33:32;;;;;;;6.97;6.25;;;;;;;33.21;60.61;100570.59;5091160;27;65656;-33
2022/10/24 09:36:04;;;;;;;6.43;6.03;;;;;;;33.31;60.73;100569.94;5089237;27;70475;-33
2022/10/24 09:38:37;;;;;;;6.65;6.07;;;;;;;33.36;60.39;100605.38;5099250;27;66129;-32
2022/10/24 09:41:25;;;;;;;7.53;6.85;;;;;;;33.28;60.79;100595.72;5100220;27;70681;-33
2022/10/24 09:43:58;;;;;;;6.63;6.22;;;;;;;33.19;60.82;100575.44;5098701;27;66117;-32
2022/10/24 09:46:43;;;;;;;7.25;6.55;;;;;;;33.31;60.90;100603.38;5097082;27;69530;-33
2022/10/24 09:49:15;;;;;;;8.20;6.90;;;;;;;33.32;60.85;100598.75;5095561;27;66872;-32
2022/10/24 09:51:57;;;;;;;9.15;7.30;;;;;;;33.09;60.92;100558.94;5097305;27;70216;-32
2022/10/24 09:54:31;;;;;;;7.90;7.10;;;;;;;32.94;60.64;100533.09;5092242;27;66088;-33
2022/10/24 09:57:04;;;;;;;7.97;7.32;;;;;;;33.28;60.73;100581.31;5097429;27;69242;-32
2022/10/24 09:59:46;;;;;;;7.43;7.03;;;;;;;33.19;60.76;100572.72;5096913;27;65831;-34
2022/10/24 10:02:18;;;;;;;8.40;6.90;;;;;;;33.26;60.75;100576.09;5096319;27;69952;-33
2022/10/24 10:05:02;;;;;;;7.43;6.95;;;;;;;33.21;60.80;100575.19;5092366;27;66751;-33
2022/10/24 10:07:41;;;;;;;7.95;7.35;;;;;;;33.23;61.06;100586.63;5082070;27;70660;-33
2022/10/24 10:10:44;;;;;;;7.25;6.75;;;;;;;33.22;61.02;100606.75;5082594;27;66135;-33
2022/10/24 10:13:14;;;;;;;6.57;6.18;;;;;;;33.20;61.11;100609.69;5077292;27;69585;-32
2022/10/24 10:15:53;;;;;;;7.47;6.88;;;;;;;33.18;60.92;100617.25;5081699;27;66060;-33
2022/10/24 10:18:25;;;;;;;;;;;;;;;32.89;61.76;100622.66;5092234;27;70532;-31
2022/10/24 10:21:01;;;;;;;7.20;6.70;;;;;;;33.16;61.40;100624.84;5085036;27;66298;-32
2022/10/24 10:23:47;;;;;;;7.97;6.80;;;;;;;33.18;61.16;100630.84;5078508;27;69326;-33
2022/10/24 10:26:27;;;;;;;7.50;7.07;;;;;;;32.72;63.64;100605.44;5081580;27;65645;-34
2022/10/24 10:29:19;;;;;;;10.18;7.60;;;;;;;32.17;64.47;100549.66;5081876;27;70336;-33
2022/10/24 10:32:20;;;;;;;9.15;8.27;;;;;;;32.33;65.47;100613.25;5083354;27;66513;-33
2022/10/24 10:35:14;;;;;;;8.52;7.90;;;;;;;31.43;66.11;100478.75;5099822;27;69923;-33
2022/10/24 10:38:05;;;;;;;11.95;8.02;;;;;;;32.23;66.57;100624.72;5086832;27;66361;-32
2022/10/24 10:40:49;;;;;;;9.32;8.45;;;;;;;31.61;67.05;100532.03;5092957;27;69353;-33
2022/10/24 10:43:22;;;;;;;8.77;7.97;;;;;;;32.20;67.58;100622.44;5092727;27;65722;-33
2022/10/24 10:46:30;;;;;;;9.00;8.13;;;;;;;32.10;67.94;100615.97;5096221;27;70127;-33
2022/10/24 10:49:12;;;;;;;9.10;8.25;;;;;;;32.12;68.04;100619.25;5100501;27;66584;-34
2022/10/24 10:51:47;;;;;;;9.35;8.55;;;;;;;31.63;68.47;100542.66;5098897;27;70255;-33
2022/10/24 10:54:39;;;;;;;9.82;8.85;;;;;;;32.15;68.52;100626.94;5103394;27;65786;-33
2022/10/24 10:57:24;;;;;;;9.23;8.43;;;;;;;32.09;68.81;100644.16;5098858;27;70398;-34
2022/10/24 11:00:35;;;;;;;8.73;8.13;;;;;;;32.11;69.09;100642.03;5096560;27;66256;-34
2022/10/24 11:03:21;;;;;;;10.32;9.35;;;;;;;32.04;70.73;100653.84;5037402;28;69286;-35
2022/10/24 11:06:04;;;;;;;16.65;11.02;;;;;;;32.07;70.86;100668.81;5083363;27;65994;-34
2022/10/24 11:09:22;;;;;;;13.05;11.60;;;;;;;31.98;70.87;100692.75;5099910;27;70160;-33
2022/10/24 11:12:28;;;;;;;15.77;12.13;;;;;;;31.95;71.15;100716.78;5083018;27;66359;-34
2022/10/24 11:15:13;;;;;;;23.17;12.35;;;;;;;32.05;71.22;100715.16;5073227;27;69495;-33
2022/10/24 11:18:07;;;;;;;31.70;16.38;;;;;;;31.82;71.84;100682.53;5085352;27;66286;-33
2022/10/24 11:20:53;;;;;;;33.45;18.70;;;;;;;31.89;72.30;100710.38;5089712;27;69597;-32
2022/10/24 11:23:44;;;;;;;32.58;19.75;;;;;;;31.94;72.92;100710.53;5089944;27;66919;-34
2022/10/24 11:26:32;;;;;;;;;;;;;;;31.77;73.79;100717.66;5099131;27;70348;-32
2022/10/24 11:29:17;;;;;;;34.13;18.55;;;;;;;32.19;71.29;100720.41;5091242;27;66958;-33
2022/10/24 11:31:53;;;;;;;26.08;16.80;;;;;;;31.82;70.58;100633.72;5094063;27;69647;-33
2022/10/24 11:34:44;;;;;;;29.90;18.27;;;;;;;32.43;69.51;100727.53;5090674;27;65475;-33
2022/10/24 11:37:21;;;;;;;28.67;17.17;;;;;;;32.47;69.90;100731.44;5096397;27;70781;-33
2022/10/24 11:40:02;;;;;;;30.65;16.80;;;;;;;32.52;70.63;100740.78;5102807;27;66377;-32
2022/10/24 11:43:06;;;;;;;25.70;16.95;;;;;;;32.41;70.61;100729.63;5090949;27;70605;-32
2022/10/24 11:45:47;;;;;;;24.80;15.93;;;;;;;32.11;70.43;100680.03;5088225;27;65430;-32
2022/10/24 11:48:45;;;;;;;16.17;14.40;;;;;;;32.53;70.90;100759.53;5082618;27;70097;-32
2022/10/24 11:51:42;;;;;;;25.35;15.52;;;;;;;32.49;70.17;100726.59;5095491;27;66271;-33
2022/10/24 11:54:28;;;;;;;23.02;14.45;;;;;;;32.60;70.61;100771.13;5089761;27;68692;-33
2022/10/24 11:57:12;;;;;;;16.02;13.07;;;;;;;32.56;70.33;100752.81;5085365;27;65639;-34
2022/10/24 11:59:44;;;;;;;15.45;13.57;;;;;;;32.67;69.56;100765.56;5080505;27;68936;-34
2022/10/24 12:02:32;;;;;;;15.02;12.07;;;;;;;32.57;70.53;100768.88;5087455;27;65613;-33
2022/10/24 12:05:27;;;;;;;14.55;12.73;;;;;;;32.57;70.29;100771.59;5088907;27;70488;-37
2022/10/24 12:08:20;;;;;;;14.98;11.68;;;;;;;31.67;69.93;100619.75;5081943;27;66820;-36
2022/10/24 12:11:29;;;;;;;14.55;12.23;;;;;;;32.53;69.93;100759.53;5080571;27;69841;-34
2022/10/24 12:14:43;;;;;;;11.95;10.55;;;;;;;32.46;70.04;100765.09;5085782;27;66596;-32